sensor_id;sensor_type;location;lat;lon;timestamp;P1;durP1;ratioP1;P2;durP2;ratioP2
1799;SDS011;919;48.274;12.292;2023-01-19T00:02:25;17.50;;;11.20;;
1799;SDS011;919;48.274;12.292;2023-01-19T00:04:51;16.70;;;11.07;;
1799;SDS011;919;48.274;12.292;2023-01-19T00:07:19;17.00;;;10.80;;
1799;SDS011;919;48.274;12.292;2023-01-19T00:09:46;15.20;;;11.00;;
1799;SDS011;919;48.274;12.292;2023-01-19T00:12:13;17.00;;;10.30;;
1799;SDS011;919;48.274;12.292;2023-01-19T00:14:39;17.90;;;10.83;;
1799;SDS011;919;48.274;12.292;2023-01-19T00:17:06;14.83;;;10.20;;
1799;SDS011;919;48.274;12.292;2023-01-19T00:19:33;16.00;;;10.63;;
1799;SDS011;919;48.274;12.292;2023-01-19T00:21:59;15.30;;;9.90;;
1799;SDS011;919;48.274;12.292;2023-01-19T00:24:27;17.37;;;10.43;;
1799;SDS011;919;48.274;12.292;2023-01-19T00:26:54;18.30;;;11.23;;
1799;SDS011;919;48.274;12.292;2023-01-19T00:29:21;16.90;;;10.03;;
1799;SDS011;919;48.274;12.292;2023-01-19T00:31:48;18.70;;;10.80;;
1799;SDS011;919;48.274;12.292;2023-01-19T00:34:15;22.07;;;11.20;;
1799;SDS011;919;48.274;12.292;2023-01-19T00:36:42;17.00;;;10.50;;
1799;SDS011;919;48.274;12.292;2023-01-19T00:39:08;18.60;;;10.60;;
1799;SDS011;919;48.274;12.292;2023-01-19T00:41:36;16.50;;;10.83;;
1799;SDS011;919;48.274;12.292;2023-01-19T00:44:21;17.60;;;10.30;;
1799;SDS011;919;48.274;12.292;2023-01-19T00:46:47;18.50;;;10.30;;
1799;SDS011;919;48.274;12.292;2023-01-19T00:49:14;15.23;;;10.20;;
1799;SDS011;919;48.274;12.292;2023-01-19T00:51:41;16.80;;;10.33;;
1799;SDS011;919;48.274;12.292;2023-01-19T00:54:07;13.90;;;9.93;;
1799;SDS011;919;48.274;12.292;2023-01-19T00:56:34;14.53;;;10.30;;
1799;SDS011;919;48.274;12.292;2023-01-19T00:59:02;15.97;;;11.30;;
1799;SDS011;919;48.274;12.292;2023-01-19T01:01:29;19.73;;;10.77;;
1799;SDS011;919;48.274;12.292;2023-01-19T01:03:56;16.93;;;10.30;;
1799;SDS011;919;48.274;12.292;2023-01-19T01:06:22;14.73;;;9.50;;
1799;SDS011;919;48.274;12.292;2023-01-19T01:08:49;15.03;;;10.70;;
1799;SDS011;919;48.274;12.292;2023-01-19T01:11:17;17.63;;;10.10;;
1799;SDS011;919;48.274;12.292;2023-01-19T01:13:45;18.33;;;10.90;;
1799;SDS011;919;48.274;12.292;2023-01-19T01:16:13;13.97;;;10.43;;
1799;SDS011;919;48.274;12.292;2023-01-19T01:18:40;16.30;;;11.07;;
1799;SDS011;919;48.274;12.292;2023-01-19T01:21:07;13.90;;;9.03;;
1799;SDS011;919;48.274;12.292;2023-01-19T01:23:34;19.07;;;12.07;;
1799;SDS011;919;48.274;12.292;2023-01-19T01:26:01;16.00;;;9.83;;
1799;SDS011;919;48.274;12.292;2023-01-19T01:28:27;16.70;;;10.43;;
1799;SDS011;919;48.274;12.292;2023-01-19T01:30:55;16.57;;;10.77;;
1799;SDS011;919;48.274;12.292;2023-01-19T01:33:22;16.77;;;10.43;;
1799;SDS011;919;48.274;12.292;2023-01-19T01:35:49;17.33;;;10.30;;
1799;SDS011;919;48.274;12.292;2023-01-19T01:38:16;18.00;;;11.27;;
1799;SDS011;919;48.274;12.292;2023-01-19T01:40:43;15.97;;;10.53;;
1799;SDS011;919;48.274;12.292;2023-01-19T01:43:10;16.77;;;9.80;;
1799;SDS011;919;48.274;12.292;2023-01-19T01:45:37;17.30;;;10.47;;
1799;SDS011;919;48.274;12.292;2023-01-19T01:48:08;16.77;;;11.00;;
1799;SDS011;919;48.274;12.292;2023-01-19T01:50:38;19.33;;;11.17;;
1799;SDS011;919;48.274;12.292;2023-01-19T01:53:28;18.60;;;11.20;;
1799;SDS011;919;48.274;12.292;2023-01-19T01:55:57;21.80;;;11.67;;
1799;SDS011;919;48.274;12.292;2023-01-19T01:58:27;18.10;;;11.43;;
1799;SDS011;919;48.274;12.292;2023-01-19T02:00:55;18.37;;;10.97;;
1799;SDS011;919;48.274;12.292;2023-01-19T02:03:40;18.93;;;11.13;;
1799;SDS011;919;48.274;12.292;2023-01-19T02:06:07;16.43;;;10.57;;
1799;SDS011;919;48.274;12.292;2023-01-19T02:08:36;17.73;;;11.10;;
1799;SDS011;919;48.274;12.292;2023-01-19T02:11:25;18.87;;;12.23;;
1799;SDS011;919;48.274;12.292;2023-01-19T02:14:10;17.60;;;11.03;;
1799;SDS011;919;48.274;12.292;2023-01-19T02:16:37;24.63;;;13.63;;
1799;SDS011;919;48.274;12.292;2023-01-19T02:19:05;19.17;;;12.47;;
1799;SDS011;919;48.274;12.292;2023-01-19T02:21:35;22.87;;;12.00;;
1799;SDS011;919;48.274;12.292;2023-01-19T02:24:09;24.13;;;13.80;;
1799;SDS011;919;48.274;12.292;2023-01-19T02:26:37;22.57;;;11.70;;
1799;SDS011;919;48.274;12.292;2023-01-19T02:29:06;18.17;;;10.43;;
1799;SDS011;919;48.274;12.292;2023-01-19T02:31:34;19.23;;;12.17;;
1799;SDS011;919;48.274;12.292;2023-01-19T02:34:03;21.30;;;12.27;;
1799;SDS011;919;48.274;12.292;2023-01-19T02:36:32;16.33;;;11.13;;
1799;SDS011;919;48.274;12.292;2023-01-19T02:39:02;19.70;;;11.83;;
1799;SDS011;919;48.274;12.292;2023-01-19T02:41:33;20.60;;;13.83;;
1799;SDS011;919;48.274;12.292;2023-01-19T02:44:05;21.80;;;13.17;;
1799;SDS011;919;48.274;12.292;2023-01-19T02:46:33;22.40;;;12.23;;
1799;SDS011;919;48.274;12.292;2023-01-19T02:49:00;29.20;;;14.10;;
1799;SDS011;919;48.274;12.292;2023-01-19T02:51:27;16.10;;;11.30;;
1799;SDS011;919;48.274;12.292;2023-01-19T02:54:02;19.57;;;12.90;;
1799;SDS011;919;48.274;12.292;2023-01-19T02:56:48;25.83;;;12.53;;
1799;SDS011;919;48.274;12.292;2023-01-19T02:59:35;18.60;;;11.50;;
1799;SDS011;919;48.274;12.292;2023-01-19T03:02:15;17.10;;;11.30;;
1799;SDS011;919;48.274;12.292;2023-01-19T03:04:52;15.70;;;10.30;;
1799;SDS011;919;48.274;12.292;2023-01-19T03:07:30;16.03;;;10.90;;
1799;SDS011;919;48.274;12.292;2023-01-19T03:10:06;14.87;;;10.33;;
1799;SDS011;919;48.274;12.292;2023-01-19T03:12:42;16.03;;;9.13;;
1799;SDS011;919;48.274;12.292;2023-01-19T03:15:13;11.17;;;7.60;;
1799;SDS011;919;48.274;12.292;2023-01-19T03:17:44;15.57;;;8.10;;
1799;SDS011;919;48.274;12.292;2023-01-19T03:20:14;9.13;;;6.47;;
1799;SDS011;919;48.274;12.292;2023-01-19T03:22:46;8.87;;;5.77;;
1799;SDS011;919;48.274;12.292;2023-01-19T03:25:15;11.97;;;6.83;;
1799;SDS011;919;48.274;12.292;2023-01-19T03:27:45;9.13;;;6.50;;
1799;SDS011;919;48.274;12.292;2023-01-19T03:30:15;6.03;;;5.30;;
1799;SDS011;919;48.274;12.292;2023-01-19T03:32:47;5.30;;;4.40;;
1799;SDS011;919;48.274;12.292;2023-01-19T03:35:18;7.00;;;5.10;;
1799;SDS011;919;48.274;12.292;2023-01-19T03:37:47;6.63;;;5.37;;
1799;SDS011;919;48.274;12.292;2023-01-19T03:40:17;6.70;;;5.63;;
1799;SDS011;919;48.274;12.292;2023-01-19T03:42:45;10.27;;;5.50;;
1799;SDS011;919;48.274;12.292;2023-01-19T03:45:14;7.53;;;5.03;;
1799;SDS011;919;48.274;12.292;2023-01-19T03:47:41;7.63;;;5.43;;
1799;SDS011;919;48.274;12.292;2023-01-19T03:50:10;7.77;;;5.63;;
1799;SDS011;919;48.274;12.292;2023-01-19T03:52:43;5.77;;;5.17;;
1799;SDS011;919;48.274;12.292;2023-01-19T03:55:09;6.97;;;4.93;;
1799;SDS011;919;48.274;12.292;2023-01-19T03:57:36;6.23;;;5.60;;
1799;SDS011;919;48.274;12.292;2023-01-19T04:00:05;6.13;;;5.53;;
1799;SDS011;919;48.274;12.292;2023-01-19T04:02:33;6.37;;;5.10;;
1799;SDS011;919;48.274;12.292;2023-01-19T04:04:59;8.43;;;4.87;;
1799;SDS011;919;48.274;12.292;2023-01-19T04:07:26;10.80;;;7.10;;
1799;SDS011;919;48.274;12.292;2023-01-19T04:09:53;10.63;;;6.30;;
1799;SDS011;919;48.274;12.292;2023-01-19T04:12:19;7.40;;;5.73;;
1799;SDS011;919;48.274;12.292;2023-01-19T04:14:46;9.83;;;6.27;;
1799;SDS011;919;48.274;12.292;2023-01-19T04:17:14;9.60;;;5.60;;
1799;SDS011;919;48.274;12.292;2023-01-19T04:19:41;7.77;;;6.40;;
1799;SDS011;919;48.274;12.292;2023-01-19T04:22:09;7.67;;;6.00;;
1799;SDS011;919;48.274;12.292;2023-01-19T04:24:35;10.53;;;6.90;;
1799;SDS011;919;48.274;12.292;2023-01-19T04:27:02;11.80;;;7.13;;
1799;SDS011;919;48.274;12.292;2023-01-19T04:29:29;8.27;;;6.10;;
1799;SDS011;919;48.274;12.292;2023-01-19T04:31:55;11.07;;;5.80;;
1799;SDS011;919;48.274;12.292;2023-01-19T04:34:23;5.50;;;5.00;;
1799;SDS011;919;48.274;12.292;2023-01-19T04:36:50;10.47;;;8.30;;
1799;SDS011;919;48.274;12.292;2023-01-19T04:39:17;10.30;;;6.80;;
1799;SDS011;919;48.274;12.292;2023-01-19T04:41:44;7.63;;;6.17;;
1799;SDS011;919;48.274;12.292;2023-01-19T04:44:10;9.73;;;7.50;;
1799;SDS011;919;48.274;12.292;2023-01-19T04:46:37;8.33;;;6.70;;
1799;SDS011;919;48.274;12.292;2023-01-19T04:49:04;11.70;;;7.67;;
1799;SDS011;919;48.274;12.292;2023-01-19T04:51:32;16.33;;;8.40;;
1799;SDS011;919;48.274;12.292;2023-01-19T04:53:58;10.50;;;7.80;;
1799;SDS011;919;48.274;12.292;2023-01-19T04:56:25;10.43;;;8.40;;
1799;SDS011;919;48.274;12.292;2023-01-19T04:58:52;10.27;;;7.83;;
1799;SDS011;919;48.274;12.292;2023-01-19T05:01:19;13.63;;;8.13;;
1799;SDS011;919;48.274;12.292;2023-01-19T05:03:45;11.50;;;8.13;;
1799;SDS011;919;48.274;12.292;2023-01-19T05:06:12;11.07;;;8.27;;
1799;SDS011;919;48.274;12.292;2023-01-19T05:08:40;11.30;;;7.77;;
1799;SDS011;919;48.274;12.292;2023-01-19T05:11:07;16.30;;;8.33;;
1799;SDS011;919;48.274;12.292;2023-01-19T05:13:33;13.13;;;8.40;;
1799;SDS011;919;48.274;12.292;2023-01-19T05:16:00;12.13;;;9.00;;
1799;SDS011;919;48.274;12.292;2023-01-19T05:18:27;10.13;;;6.43;;
1799;SDS011;919;48.274;12.292;2023-01-19T05:21:00;11.50;;;8.63;;
1799;SDS011;919;48.274;12.292;2023-01-19T05:23:27;7.70;;;6.73;;
1799;SDS011;919;48.274;12.292;2023-01-19T05:25:56;10.23;;;7.17;;
1799;SDS011;919;48.274;12.292;2023-01-19T05:28:24;12.17;;;7.97;;
1799;SDS011;919;48.274;12.292;2023-01-19T05:30:51;9.73;;;7.47;;
1799;SDS011;919;48.274;12.292;2023-01-19T05:33:18;10.70;;;7.20;;
1799;SDS011;919;48.274;12.292;2023-01-19T05:35:45;10.70;;;8.10;;
1799;SDS011;919;48.274;12.292;2023-01-19T05:38:12;11.47;;;7.90;;
1799;SDS011;919;48.274;12.292;2023-01-19T05:40:38;11.80;;;7.80;;
1799;SDS011;919;48.274;12.292;2023-01-19T05:43:06;13.43;;;8.97;;
1799;SDS011;919;48.274;12.292;2023-01-19T05:45:33;13.77;;;8.37;;
1799;SDS011;919;48.274;12.292;2023-01-19T05:48:00;10.70;;;7.73;;
1799;SDS011;919;48.274;12.292;2023-01-19T05:50:26;11.60;;;9.10;;
1799;SDS011;919;48.274;12.292;2023-01-19T05:52:53;12.07;;;8.73;;
1799;SDS011;919;48.274;12.292;2023-01-19T05:55:20;10.63;;;8.83;;
1799;SDS011;919;48.274;12.292;2023-01-19T05:57:47;11.13;;;8.47;;
1799;SDS011;919;48.274;12.292;2023-01-19T06:00:15;11.47;;;7.90;;
1799;SDS011;919;48.274;12.292;2023-01-19T06:02:42;11.53;;;8.17;;
1799;SDS011;919;48.274;12.292;2023-01-19T06:05:10;13.20;;;8.80;;
1799;SDS011;919;48.274;12.292;2023-01-19T06:07:37;17.37;;;9.70;;
1799;SDS011;919;48.274;12.292;2023-01-19T06:10:04;11.13;;;7.83;;
1799;SDS011;919;48.274;12.292;2023-01-19T06:12:31;12.90;;;7.70;;
1799;SDS011;919;48.274;12.292;2023-01-19T06:14:58;11.00;;;9.10;;
1799;SDS011;919;48.274;12.292;2023-01-19T06:17:26;14.93;;;9.00;;
1799;SDS011;919;48.274;12.292;2023-01-19T06:19:53;13.70;;;9.40;;
1799;SDS011;919;48.274;12.292;2023-01-19T06:22:20;12.60;;;8.80;;
1799;SDS011;919;48.274;12.292;2023-01-19T06:24:47;10.90;;;8.40;;
1799;SDS011;919;48.274;12.292;2023-01-19T06:27:13;9.53;;;7.90;;
1799;SDS011;919;48.274;12.292;2023-01-19T06:29:40;12.17;;;8.97;;
1799;SDS011;919;48.274;12.292;2023-01-19T06:32:07;12.73;;;8.50;;
1799;SDS011;919;48.274;12.292;2023-01-19T06:34:35;12.50;;;9.67;;
1799;SDS011;919;48.274;12.292;2023-01-19T06:37:04;13.27;;;8.83;;
1799;SDS011;919;48.274;12.292;2023-01-19T06:39:30;12.30;;;8.27;;
1799;SDS011;919;48.274;12.292;2023-01-19T06:41:57;13.83;;;8.87;;
1799;SDS011;919;48.274;12.292;2023-01-19T06:44:24;13.53;;;8.83;;
1799;SDS011;919;48.274;12.292;2023-01-19T06:46:51;11.93;;;8.50;;
1799;SDS011;919;48.274;12.292;2023-01-19T06:49:17;13.40;;;8.83;;
1799;SDS011;919;48.274;12.292;2023-01-19T06:51:45;9.57;;;8.10;;
1799;SDS011;919;48.274;12.292;2023-01-19T06:54:12;14.70;;;8.73;;
1799;SDS011;919;48.274;12.292;2023-01-19T06:56:39;10.63;;;8.63;;
1799;SDS011;919;48.274;12.292;2023-01-19T06:59:05;10.03;;;8.20;;
1799;SDS011;919;48.274;12.292;2023-01-19T07:01:33;11.80;;;7.53;;
1799;SDS011;919;48.274;12.292;2023-01-19T07:04:00;13.67;;;8.73;;
1799;SDS011;919;48.274;12.292;2023-01-19T07:06:27;12.90;;;9.40;;
1799;SDS011;919;48.274;12.292;2023-01-19T07:08:55;10.63;;;8.13;;
1799;SDS011;919;48.274;12.292;2023-01-19T07:11:24;9.50;;;7.90;;
1799;SDS011;919;48.274;12.292;2023-01-19T07:13:52;14.23;;;9.00;;
1799;SDS011;919;48.274;12.292;2023-01-19T07:16:20;12.83;;;8.00;;
1799;SDS011;919;48.274;12.292;2023-01-19T07:18:46;16.07;;;8.70;;
1799;SDS011;919;48.274;12.292;2023-01-19T07:21:13;10.37;;;8.10;;
1799;SDS011;919;48.274;12.292;2023-01-19T07:23:40;13.30;;;9.80;;
1799;SDS011;919;48.274;12.292;2023-01-19T07:26:09;9.30;;;8.30;;
1799;SDS011;919;48.274;12.292;2023-01-19T07:28:36;11.40;;;8.27;;
1799;SDS011;919;48.274;12.292;2023-01-19T07:31:02;13.33;;;9.10;;
1799;SDS011;919;48.274;12.292;2023-01-19T07:33:29;15.27;;;9.03;;
1799;SDS011;919;48.274;12.292;2023-01-19T07:35:56;11.67;;;8.10;;
1799;SDS011;919;48.274;12.292;2023-01-19T07:38:22;13.67;;;9.10;;
1799;SDS011;919;48.274;12.292;2023-01-19T07:40:49;13.83;;;8.90;;
1799;SDS011;919;48.274;12.292;2023-01-19T07:43:17;12.60;;;9.93;;
1799;SDS011;919;48.274;12.292;2023-01-19T07:45:44;12.87;;;9.73;;
1799;SDS011;919;48.274;12.292;2023-01-19T07:48:11;11.60;;;9.00;;
1799;SDS011;919;48.274;12.292;2023-01-19T07:50:38;13.17;;;8.70;;
1799;SDS011;919;48.274;12.292;2023-01-19T07:53:05;16.23;;;8.27;;
1799;SDS011;919;48.274;12.292;2023-01-19T07:55:32;12.00;;;8.90;;
1799;SDS011;919;48.274;12.292;2023-01-19T07:57:59;11.90;;;7.93;;
1799;SDS011;919;48.274;12.292;2023-01-19T08:00:30;16.00;;;8.50;;
1799;SDS011;919;48.274;12.292;2023-01-19T08:02:57;11.77;;;8.30;;
1799;SDS011;919;48.274;12.292;2023-01-19T08:05:24;11.37;;;8.70;;
1799;SDS011;919;48.274;12.292;2023-01-19T08:07:53;13.20;;;8.43;;
1799;SDS011;919;48.274;12.292;2023-01-19T08:10:21;10.90;;;8.33;;
1799;SDS011;919;48.274;12.292;2023-01-19T08:12:50;12.83;;;9.10;;
1799;SDS011;919;48.274;12.292;2023-01-19T08:15:17;11.03;;;8.73;;
1799;SDS011;919;48.274;12.292;2023-01-19T08:17:45;12.50;;;8.90;;
1799;SDS011;919;48.274;12.292;2023-01-19T08:20:12;13.87;;;9.10;;
1799;SDS011;919;48.274;12.292;2023-01-19T08:22:39;14.50;;;9.77;;
1799;SDS011;919;48.274;12.292;2023-01-19T08:25:06;14.57;;;8.63;;
1799;SDS011;919;48.274;12.292;2023-01-19T08:27:33;12.33;;;8.93;;
1799;SDS011;919;48.274;12.292;2023-01-19T08:30:00;13.03;;;9.53;;
1799;SDS011;919;48.274;12.292;2023-01-19T08:32:26;13.53;;;9.37;;
1799;SDS011;919;48.274;12.292;2023-01-19T08:34:54;10.53;;;8.73;;
1799;SDS011;919;48.274;12.292;2023-01-19T08:37:21;15.57;;;9.30;;
1799;SDS011;919;48.274;12.292;2023-01-19T08:39:48;10.90;;;8.33;;
1799;SDS011;919;48.274;12.292;2023-01-19T08:42:17;14.73;;;9.00;;
1799;SDS011;919;48.274;12.292;2023-01-19T08:44:44;18.30;;;8.90;;
1799;SDS011;919;48.274;12.292;2023-01-19T08:47:10;13.03;;;8.83;;
1799;SDS011;919;48.274;12.292;2023-01-19T08:49:37;13.20;;;8.80;;
1799;SDS011;919;48.274;12.292;2023-01-19T08:52:06;11.50;;;8.97;;
1799;SDS011;919;48.274;12.292;2023-01-19T08:54:33;14.10;;;10.10;;
1799;SDS011;919;48.274;12.292;2023-01-19T08:57:00;15.00;;;9.40;;
1799;SDS011;919;48.274;12.292;2023-01-19T08:59:26;15.33;;;10.70;;
1799;SDS011;919;48.274;12.292;2023-01-19T09:01:53;12.20;;;9.33;;
1799;SDS011;919;48.274;12.292;2023-01-19T09:04:20;14.73;;;8.80;;
1799;SDS011;919;48.274;12.292;2023-01-19T09:06:46;10.60;;;8.83;;
1799;SDS011;919;48.274;12.292;2023-01-19T09:09:15;12.90;;;8.77;;
1799;SDS011;919;48.274;12.292;2023-01-19T09:11:41;13.40;;;8.90;;
1799;SDS011;919;48.274;12.292;2023-01-19T09:14:08;15.07;;;8.90;;
1799;SDS011;919;48.274;12.292;2023-01-19T09:16:35;18.53;;;11.27;;
1799;SDS011;919;48.274;12.292;2023-01-19T09:19:01;19.57;;;9.70;;
1799;SDS011;919;48.274;12.292;2023-01-19T09:21:28;13.53;;;9.93;;
1799;SDS011;919;48.274;12.292;2023-01-19T09:23:55;11.97;;;9.57;;
1799;SDS011;919;48.274;12.292;2023-01-19T09:26:23;14.57;;;9.23;;
1799;SDS011;919;48.274;12.292;2023-01-19T09:28:50;14.00;;;9.63;;
1799;SDS011;919;48.274;12.292;2023-01-19T09:31:16;11.97;;;9.67;;
1799;SDS011;919;48.274;12.292;2023-01-19T09:33:43;14.30;;;9.90;;
1799;SDS011;919;48.274;12.292;2023-01-19T09:36:10;14.60;;;9.20;;
1799;SDS011;919;48.274;12.292;2023-01-19T09:38:37;17.10;;;9.57;;
1799;SDS011;919;48.274;12.292;2023-01-19T09:41:08;14.07;;;9.40;;
1799;SDS011;919;48.274;12.292;2023-01-19T09:43:43;13.20;;;9.17;;
1799;SDS011;919;48.274;12.292;2023-01-19T09:46:14;13.03;;;9.20;;
1799;SDS011;919;48.274;12.292;2023-01-19T09:48:45;14.20;;;9.57;;
1799;SDS011;919;48.274;12.292;2023-01-19T09:51:17;10.13;;;8.37;;
1799;SDS011;919;48.274;12.292;2023-01-19T09:53:50;13.10;;;10.00;;
1799;SDS011;919;48.274;12.292;2023-01-19T09:56:22;13.57;;;9.67;;
1799;SDS011;919;48.274;12.292;2023-01-19T09:58:51;16.30;;;9.07;;
1799;SDS011;919;48.274;12.292;2023-01-19T10:01:23;17.50;;;9.17;;
1799;SDS011;919;48.274;12.292;2023-01-19T10:04:17;14.93;;;9.10;;
1799;SDS011;919;48.274;12.292;2023-01-19T10:09:47;14.27;;;8.27;;
1799;SDS011;919;48.274;12.292;2023-01-19T10:12:25;10.70;;;7.93;;
1799;SDS011;919;48.274;12.292;2023-01-19T10:15:04;11.47;;;8.30;;
1799;SDS011;919;48.274;12.292;2023-01-19T10:17:44;21.40;;;9.07;;
1799;SDS011;919;48.274;12.292;2023-01-19T10:20:18;15.20;;;8.93;;
1799;SDS011;919;48.274;12.292;2023-01-19T10:22:52;14.53;;;9.43;;
1799;SDS011;919;48.274;12.292;2023-01-19T10:25:21;10.70;;;8.23;;
1799;SDS011;919;48.274;12.292;2023-01-19T10:27:49;14.10;;;8.60;;
1799;SDS011;919;48.274;12.292;2023-01-19T10:30:18;14.00;;;8.60;;
1799;SDS011;919;48.274;12.292;2023-01-19T10:32:49;12.00;;;8.77;;
1799;SDS011;919;48.274;12.292;2023-01-19T10:35:17;10.27;;;7.67;;
1799;SDS011;919;48.274;12.292;2023-01-19T10:37:48;16.40;;;8.23;;
1799;SDS011;919;48.274;12.292;2023-01-19T10:40:18;13.70;;;8.27;;
1799;SDS011;919;48.274;12.292;2023-01-19T10:42:52;11.07;;;7.90;;
1799;SDS011;919;48.274;12.292;2023-01-19T10:45:20;11.33;;;7.67;;
1799;SDS011;919;48.274;12.292;2023-01-19T10:47:49;11.87;;;7.80;;
1799;SDS011;919;48.274;12.292;2023-01-19T10:50:21;16.57;;;9.07;;
1799;SDS011;919;48.274;12.292;2023-01-19T10:52:49;13.10;;;9.60;;
1799;SDS011;919;48.274;12.292;2023-01-19T10:55:22;12.83;;;9.70;;
1799;SDS011;919;48.274;12.292;2023-01-19T10:57:51;12.53;;;8.97;;
1799;SDS011;919;48.274;12.292;2023-01-19T11:00:29;12.40;;;9.00;;
1799;SDS011;919;48.274;12.292;2023-01-19T11:02:58;16.30;;;8.80;;
1799;SDS011;919;48.274;12.292;2023-01-19T11:05:26;11.27;;;9.00;;
1799;SDS011;919;48.274;12.292;2023-01-19T11:07:54;11.83;;;7.93;;
1799;SDS011;919;48.274;12.292;2023-01-19T11:10:22;11.97;;;8.50;;
1799;SDS011;919;48.274;12.292;2023-01-19T11:12:54;10.77;;;8.50;;
1799;SDS011;919;48.274;12.292;2023-01-19T11:15:28;11.37;;;8.57;;
1799;SDS011;919;48.274;12.292;2023-01-19T11:17:57;15.00;;;7.97;;
1799;SDS011;919;48.274;12.292;2023-01-19T11:20:25;11.87;;;8.40;;
1799;SDS011;919;48.274;12.292;2023-01-19T11:23:02;10.87;;;7.60;;
1799;SDS011;919;48.274;12.292;2023-01-19T11:25:30;12.30;;;8.20;;
1799;SDS011;919;48.274;12.292;2023-01-19T11:27:59;12.00;;;8.37;;
1799;SDS011;919;48.274;12.292;2023-01-19T11:30:26;9.90;;;7.57;;
1799;SDS011;919;48.274;12.292;2023-01-19T11:32:55;9.93;;;6.37;;
1799;SDS011;919;48.274;12.292;2023-01-19T11:35:32;11.73;;;7.60;;
1799;SDS011;919;48.274;12.292;2023-01-19T11:38:05;11.60;;;7.50;;
1799;SDS011;919;48.274;12.292;2023-01-19T11:40:38;11.90;;;8.23;;
1799;SDS011;919;48.274;12.292;2023-01-19T11:43:08;14.27;;;7.27;;
1799;SDS011;919;48.274;12.292;2023-01-19T11:45:38;10.60;;;7.20;;
1799;SDS011;919;48.274;12.292;2023-01-19T11:48:05;12.60;;;6.90;;
1799;SDS011;919;48.274;12.292;2023-01-19T11:50:39;11.07;;;7.13;;
1799;SDS011;919;48.274;12.292;2023-01-19T11:53:10;9.33;;;7.17;;
1799;SDS011;919;48.274;12.292;2023-01-19T11:55:46;9.37;;;7.40;;
1799;SDS011;919;48.274;12.292;2023-01-19T11:58:16;8.97;;;6.87;;
1799;SDS011;919;48.274;12.292;2023-01-19T12:00:46;11.17;;;7.67;;
1799;SDS011;919;48.274;12.292;2023-01-19T12:03:18;8.73;;;7.20;;
1799;SDS011;919;48.274;12.292;2023-01-19T12:05:49;8.80;;;7.37;;
1799;SDS011;919;48.274;12.292;2023-01-19T12:08:19;9.60;;;7.67;;
1799;SDS011;919;48.274;12.292;2023-01-19T12:10:48;10.37;;;8.13;;
1799;SDS011;919;48.274;12.292;2023-01-19T12:13:19;14.43;;;7.73;;
1799;SDS011;919;48.274;12.292;2023-01-19T12:15:49;9.30;;;7.80;;
1799;SDS011;919;48.274;12.292;2023-01-19T12:18:20;10.40;;;7.70;;
1799;SDS011;919;48.274;12.292;2023-01-19T12:20:49;9.03;;;6.40;;
1799;SDS011;919;48.274;12.292;2023-01-19T12:23:21;8.20;;;6.60;;
1799;SDS011;919;48.274;12.292;2023-01-19T12:25:58;11.37;;;7.27;;
1799;SDS011;919;48.274;12.292;2023-01-19T12:28:34;8.90;;;6.60;;
1799;SDS011;919;48.274;12.292;2023-01-19T12:31:05;14.43;;;7.57;;
1799;SDS011;919;48.274;12.292;2023-01-19T12:33:34;9.33;;;6.50;;
1799;SDS011;919;48.274;12.292;2023-01-19T12:36:03;9.03;;;6.70;;
1799;SDS011;919;48.274;12.292;2023-01-19T12:38:47;8.70;;;6.80;;
1799;SDS011;919;48.274;12.292;2023-01-19T12:41:20;9.50;;;6.10;;
1799;SDS011;919;48.274;12.292;2023-01-19T12:44:14;7.83;;;6.47;;
1799;SDS011;919;48.274;12.292;2023-01-19T12:46:47;8.50;;;6.87;;
1799;SDS011;919;48.274;12.292;2023-01-19T12:49:20;7.10;;;5.67;;
1799;SDS011;919;48.274;12.292;2023-01-19T12:51:52;10.03;;;6.30;;
1799;SDS011;919;48.274;12.292;2023-01-19T12:54:23;9.50;;;6.57;;
1799;SDS011;919;48.274;12.292;2023-01-19T12:56:55;8.13;;;6.37;;
1799;SDS011;919;48.274;12.292;2023-01-19T12:59:25;8.63;;;5.53;;
1799;SDS011;919;48.274;12.292;2023-01-19T13:05:13;8.07;;;6.00;;
1799;SDS011;919;48.274;12.292;2023-01-19T13:13:44;9.60;;;6.00;;
1799;SDS011;919;48.274;12.292;2023-01-19T13:17:10;8.30;;;5.30;;
1799;SDS011;919;48.274;12.292;2023-01-19T13:22:50;8.70;;;6.20;;
1799;SDS011;919;48.274;12.292;2023-01-19T13:25:38;6.47;;;5.43;;
1799;SDS011;919;48.274;12.292;2023-01-19T13:28:08;7.17;;;5.57;;
1799;SDS011;919;48.274;12.292;2023-01-19T13:30:36;10.83;;;6.10;;
1799;SDS011;919;48.274;12.292;2023-01-19T13:33:15;6.73;;;5.67;;
1799;SDS011;919;48.274;12.292;2023-01-19T13:35:47;7.57;;;5.20;;
1799;SDS011;919;48.274;12.292;2023-01-19T13:38:17;7.07;;;5.97;;
1799;SDS011;919;48.274;12.292;2023-01-19T13:40:44;7.50;;;5.63;;
1799;SDS011;919;48.274;12.292;2023-01-19T13:43:14;8.43;;;5.50;;
1799;SDS011;919;48.274;12.292;2023-01-19T13:45:44;9.43;;;5.83;;
1799;SDS011;919;48.274;12.292;2023-01-19T13:48:16;9.93;;;6.40;;
1799;SDS011;919;48.274;12.292;2023-01-19T13:50:55;9.33;;;6.57;;
1799;SDS011;919;48.274;12.292;2023-01-19T13:53:22;7.73;;;5.70;;
1799;SDS011;919;48.274;12.292;2023-01-19T13:56:04;8.27;;;6.00;;
1799;SDS011;919;48.274;12.292;2023-01-19T13:58:35;10.07;;;6.27;;
1799;SDS011;919;48.274;12.292;2023-01-19T14:01:02;7.67;;;5.20;;
1799;SDS011;919;48.274;12.292;2023-01-19T14:03:30;7.30;;;5.10;;
1799;SDS011;919;48.274;12.292;2023-01-19T14:05:56;9.07;;;5.50;;
1799;SDS011;919;48.274;12.292;2023-01-19T14:08:23;7.57;;;5.23;;
1799;SDS011;919;48.274;12.292;2023-01-19T14:10:58;8.53;;;5.67;;
1799;SDS011;919;48.274;12.292;2023-01-19T14:13:27;6.83;;;5.40;;
1799;SDS011;919;48.274;12.292;2023-01-19T14:15:55;6.70;;;5.23;;
1799;SDS011;919;48.274;12.292;2023-01-19T14:18:25;8.40;;;5.77;;
1799;SDS011;919;48.274;12.292;2023-01-19T14:20:56;8.17;;;5.43;;
1799;SDS011;919;48.274;12.292;2023-01-19T14:23:38;8.43;;;5.70;;
1799;SDS011;919;48.274;12.292;2023-01-19T14:29:13;9.20;;;5.40;;
1799;SDS011;919;48.274;12.292;2023-01-19T14:31:42;6.90;;;4.90;;
1799;SDS011;919;48.274;12.292;2023-01-19T14:37:01;8.50;;;5.07;;
1799;SDS011;919;48.274;12.292;2023-01-19T14:39:31;8.43;;;5.37;;
1799;SDS011;919;48.274;12.292;2023-01-19T14:41:59;10.63;;;5.67;;
1799;SDS011;919;48.274;12.292;2023-01-19T14:44:29;8.60;;;6.13;;
1799;SDS011;919;48.274;12.292;2023-01-19T14:46:58;6.20;;;5.13;;
1799;SDS011;919;48.274;12.292;2023-01-19T14:49:29;6.60;;;4.93;;
1799;SDS011;919;48.274;12.292;2023-01-19T14:51:58;7.73;;;5.43;;
1799;SDS011;919;48.274;12.292;2023-01-19T14:54:29;4.67;;;4.17;;
1799;SDS011;919;48.274;12.292;2023-01-19T14:56:59;9.00;;;4.60;;
1799;SDS011;919;48.274;12.292;2023-01-19T14:59:26;8.50;;;5.30;;
1799;SDS011;919;48.274;12.292;2023-01-19T15:01:53;9.20;;;5.23;;
1799;SDS011;919;48.274;12.292;2023-01-19T15:04:20;6.90;;;4.83;;
1799;SDS011;919;48.274;12.292;2023-01-19T15:06:47;6.57;;;4.50;;
1799;SDS011;919;48.274;12.292;2023-01-19T15:09:14;5.63;;;4.30;;
1799;SDS011;919;48.274;12.292;2023-01-19T15:11:42;6.30;;;4.80;;
1799;SDS011;919;48.274;12.292;2023-01-19T15:14:12;10.30;;;5.80;;
1799;SDS011;919;48.274;12.292;2023-01-19T15:16:39;10.13;;;5.50;;
1799;SDS011;919;48.274;12.292;2023-01-19T15:19:08;5.30;;;4.47;;
1799;SDS011;919;48.274;12.292;2023-01-19T15:21:37;7.37;;;5.63;;
1799;SDS011;919;48.274;12.292;2023-01-19T15:24:06;7.80;;;4.80;;
1799;SDS011;919;48.274;12.292;2023-01-19T15:26:34;6.20;;;5.10;;
1799;SDS011;919;48.274;12.292;2023-01-19T15:29:04;8.20;;;5.87;;
1799;SDS011;919;48.274;12.292;2023-01-19T15:31:39;7.10;;;5.60;;
1799;SDS011;919;48.274;12.292;2023-01-19T15:34:07;6.07;;;4.17;;
1799;SDS011;919;48.274;12.292;2023-01-19T15:36:36;6.00;;;5.27;;
1799;SDS011;919;48.274;12.292;2023-01-19T15:39:03;7.67;;;5.60;;